Time;durP1;ratioP1;P1;durP2;ratioP2;P2;SDS_P1;SDS_P2;PMS_P1;PMS_P2;Temp;Humidity;BMP_temperature;BMP_pressure;BME280_temperature;BME280_humidity;BME280_pressure;Samples;Min_cycle;Max_cycle;Signal;HPM_P1;HPM_P2
2022/01/11 00:00:10;;;;;;;0.80;0.80;;;;;;;1.61;61.78;102761.13;687353;28;44398;-70
2022/01/11 00:00:35;;;;;;;0.70;0.70;;;;;;;1.59;61.91;102761.19;688255;28;22430;-71
2022/01/11 00:01:09;;;;;;;0.70;0.70;;;;;;;1.60;61.94;102754.94;684538;28;137656;-71
2022/01/11 00:01:30;;;;;;;0.65;0.65;;;;;;;1.60;61.94;102762.06;685791;28;40807;-71
2022/01/11 00:01:52;;;;;;;0.60;0.60;;;;;;;1.62;61.77;102754.88;685095;28;23532;-70
2022/01/11 00:02:15;;;;;;;0.50;0.50;;;;;;;1.63;61.82;102761.94;684696;28;45353;-70
2022/01/11 00:02:41;;;;;;;0.63;0.63;;;;;;;1.63;61.72;102756.63;685950;28;69034;-70
2022/01/11 00:03:04;;;;;;;0.80;0.80;;;;;;;1.62;61.49;102757.53;684341;28;138228;-71
2022/01/11 00:03:25;;;;;;;0.80;0.80;;;;;;;1.59;61.55;102760.34;688822;28;1669;-70
2022/01/11 00:03:47;;;;;;;0.70;0.70;;;;;;;1.57;61.75;102749.75;689001;28;963;-70
2022/01/11 00:04:08;;;;;;;0.60;0.60;;;;;;;1.56;61.86;102758.66;687373;28;46220;-71
2022/01/11 00:04:30;;;;;;;0.70;0.70;;;;;;;1.57;61.93;102759.56;687897;28;23511;-70
2022/01/11 00:04:51;;;;;;;0.60;0.60;;;;;;;1.56;61.93;102757.81;685176;28;45253;-71
2022/01/11 00:05:22;;;;;;;0.50;0.50;;;;;;;1.55;62.17;102758.72;685543;28;22416;-71
2022/01/11 00:05:49;;;;;;;0.70;0.70;;;;;;;1.56;62.03;102761.31;682216;28;136025;-71
2022/01/11 00:06:27;;;;;;;0.75;0.75;;;;;;;1.57;61.99;102757.75;681808;28;136478;-71
2022/01/11 00:06:50;;;;;;;0.68;0.68;;;;;;;1.58;61.96;102771.91;680436;28;137560;-70
2022/01/11 00:07:14;;;;;;;0.60;0.60;;;;;;;1.55;61.89;102756.97;684199;28;69575;-70
2022/01/11 00:07:36;;;;;;;0.60;0.60;;;;;;;1.59;61.85;102763.00;683002;28;92580;-71
2022/01/11 00:07:58;;;;;;;0.60;0.60;;;;;;;1.61;61.63;102771.78;685058;28;45366;-71
2022/01/11 00:08:28;;;;;;;0.60;0.60;;;;;;;1.62;61.81;102763.72;684555;28;45436;-70
2022/01/11 00:08:51;;;;;;;0.70;0.70;;;;;;;1.63;61.83;102775.25;680758;28;138809;-70
2022/01/11 00:09:21;;;;;;;0.70;0.70;;;;;;;1.60;61.58;102759.41;680493;28;69493;-71
2022/01/11 00:09:44;;;;;;;0.70;0.70;;;;;;;1.58;61.59;102769.25;678971;28;159131;-71
2022/01/11 00:10:09;;;;;;;0.70;0.70;;;;;;;1.56;61.57;102765.81;681440;28;71997;-70
2022/01/11 00:10:34;;;;;;;0.70;0.70;;;;;;;1.52;61.47;102764.19;680048;28;114662;-70
2022/01/11 00:11:02;;;;;;;0.57;0.57;;;;;;;1.49;61.92;102770.53;680148;28;114904;-71
2022/01/11 00:11:23;;;;;;;0.70;0.70;;;;;;;1.47;61.78;102763.53;680266;28;106602;-71
2022/01/11 00:11:45;;;;;;;0.70;0.70;;;;;;;1.44;61.81;102767.19;682243;28;23485;-70
2022/01/11 00:12:08;;;;;;;0.60;0.60;;;;;;;1.41;61.98;102764.66;682573;28;45253;-71
2022/01/11 00:12:29;;;;;;;0.55;0.55;;;;;;;1.37;61.96;102763.94;681572;28;56934;-71
2022/01/11 00:12:51;;;;;;;0.60;0.60;;;;;;;1.31;62.04;102763.34;682975;28;23478;-71
2022/01/11 00:13:12;;;;;;;0.60;0.60;;;;;;;1.31;62.15;102766.88;682045;28;46214;-71
2022/01/11 00:13:36;;;;;;;0.60;0.60;;;;;;;1.29;62.22;102765.22;683317;28;23580;-71
2022/01/11 00:13:57;;;;;;;0.57;0.57;;;;;;;1.28;62.34;102763.50;677852;28;91353;-71
2022/01/11 00:14:18;;;;;;;0.80;0.80;;;;;;;1.28;62.44;102763.50;679856;28;22417;-71
2022/01/11 00:14:39;;;;;;;0.70;0.70;;;;;;;1.30;62.52;102770.50;681363;28;23375;-71
2022/01/11 00:15:01;;;;;;;0.70;0.70;;;;;;;1.28;62.58;102768.81;681192;28;22386;-71
2022/01/11 00:15:23;;;;;;;0.70;0.70;;;;;;;1.24;62.55;102758.31;679756;29;45268;-71
2022/01/11 00:15:44;;;;;;;0.65;0.65;;;;;;;1.25;62.61;102759.16;678372;29;23352;-71
2022/01/11 00:16:08;;;;;;;0.60;0.60;;;;;;;1.24;62.70;102776.09;680346;28;45347;-71
2022/01/11 00:16:29;;;;;;;0.60;0.60;;;;;;;1.23;62.60;102767.22;679476;28;69391;-71
2022/01/11 00:16:50;;;;;;;0.70;0.70;;;;;;;1.23;62.73;102766.34;680301;28;24178;-71
2022/01/11 00:17:12;;;;;;;0.80;0.80;;;;;;;1.24;62.89;102765.44;680220;29;23503;-71
2022/01/11 00:17:33;;;;;;;0.70;0.70;;;;;;;1.22;62.80;102765.50;681018;28;46453;-70
2022/01/11 00:17:56;;;;;;;0.70;0.70;;;;;;;1.21;62.65;102768.22;683940;28;23505;-70
2022/01/11 00:18:17;;;;;;;0.70;0.70;;;;;;;1.19;62.83;102770.97;680799;28;90425;-71
2022/01/11 00:18:40;;;;;;;0.60;0.60;;;;;;;1.19;62.81;102768.28;682960;28;45265;-71
2022/01/11 00:19:05;;;;;;;0.60;0.60;;;;;;;1.20;62.87;102771.81;682603;28;43896;-71
2022/01/11 00:19:28;;;;;;;0.68;0.68;;;;;;;1.18;62.83;102766.56;681146;28;117243;-71
2022/01/11 00:19:50;;;;;;;0.80;0.80;;;;;;;1.17;62.82;102769.28;681852;28;67551;-70
2022/01/11 00:20:13;;;;;;;0.80;0.80;;;;;;;1.18;62.98;102768.34;682789;28;46298;-71
2022/01/11 00:20:37;;;;;;;0.80;0.80;;;;;;;1.18;63.03;102771.03;682252;28;69291;-71
2022/01/11 00:20:59;;;;;;;0.70;0.70;;;;;;;1.16;63.12;102770.19;681223;28;92309;-71
2022/01/11 00:21:21;;;;;;;0.70;0.70;;;;;;;1.16;63.05;102775.53;682445;28;46317;-71
2022/01/11 00:21:46;;;;;;;0.60;0.60;;;;;;;1.15;62.98;102776.47;682914;28;46417;-70
2022/01/11 00:22:16;;;;;;;0.60;0.60;;;;;;;1.15;63.07;102774.66;680760;28;115307;-71
2022/01/11 00:22:48;;;;;;;0.80;0.80;;;;;;;1.18;63.16;102773.69;678895;28;137849;-71
2022/01/11 00:24:30;;;;;;;0.65;0.65;;;;;;;1.21;63.05;102779.72;680620;28;138354;-70
2022/01/11 00:24:51;;;;;;;0.60;0.60;;;;;;;1.19;63.10;102773.63;682478;28;67508;-70
2022/01/11 00:25:13;;;;;;;0.73;0.73;;;;;;;1.24;63.01;102782.25;683431;28;22482;-71
2022/01/11 00:25:36;;;;;;;0.80;0.80;;;;;;;1.28;62.98;102774.13;684146;28;21293;-71
2022/01/11 00:25:58;;;;;;;0.80;0.80;;;;;;;1.29;63.04;102779.41;682354;28;67550;-70
2022/01/11 00:26:20;;;;;;;0.70;0.70;;;;;;;1.31;62.91;102779.34;682064;28;45295;-71
2022/01/11 00:26:41;;;;;;;0.80;0.80;;;;;;;1.31;62.87;102788.19;682317;28;46393;-70
2022/01/11 00:27:04;;;;;;;0.70;0.70;;;;;;;1.32;62.80;102783.75;683280;28;22350;-71
2022/01/11 00:27:25;;;;;;;0.60;0.60;;;;;;;1.37;62.54;102787.91;681907;28;68370;-70
2022/01/11 00:27:46;;;;;;;0.60;0.60;;;;;;;1.36;62.54;102780.84;681070;29;22406;-70
2022/01/11 00:28:09;;;;;;;0.70;0.70;;;;;;;1.38;62.60;102786.09;682227;28;21540;-71
2022/01/11 00:28:36;;;;;;;0.88;0.88;;;;;;;1.39;62.46;102779.84;674262;29;160907;-70
2022/01/11 00:29:13;;;;;;;0.70;0.70;;;;;;;1.40;62.24;102784.25;668449;29;160597;-70
2022/01/11 00:29:40;;;;;;;0.70;0.70;;;;;;;1.41;62.23;102781.53;673694;29;45258;-70
2022/01/11 00:30:08;;;;;;;0.50;0.50;;;;;;;1.44;62.13;102788.50;676779;28;138185;-70
2022/01/11 00:30:33;;;;;;;0.60;0.60;;;;;;;1.41;62.22;102784.19;676602;28;92168;-71
2022/01/11 00:30:55;;;;;;;0.60;0.60;;;;;;;1.42;61.96;102779.72;678209;28;113933;-71
2022/01/11 00:31:18;;;;;;;0.77;0.77;;;;;;;1.49;61.92;102780.31;676449;29;44396;-71
2022/01/11 00:31:40;;;;;;;0.70;0.70;;;;;;;1.52;61.70;102781.06;676297;29;63870;-70
2022/01/11 00:32:05;;;;;;;0.70;0.70;;;;;;;1.53;61.80;102782.78;676373;29;45096;-71
2022/01/11 00:32:36;;;;;;;0.70;0.70;;;;;;;1.50;61.67;102782.06;676063;28;136486;-70
2022/01/11 00:33:01;;;;;;;0.60;0.60;;;;;;;1.60;61.72;102778.91;678552;28;161495;-71
2022/01/11 00:33:29;;;;;;;0.50;0.50;;;;;;;1.67;61.19;102776.84;679012;28;115177;-71
2022/01/11 00:33:51;;;;;;;0.70;0.70;;;;;;;1.68;61.26;102789.22;681283;28;159260;-70
2022/01/11 00:34:16;;;;;;;0.80;0.80;;;;;;;1.71;61.50;102780.22;684156;28;45226;-70
2022/01/11 00:34:47;;;;;;;0.80;0.80;;;;;;;1.76;60.85;102778.22;679831;28;115135;-70
2022/01/11 00:35:11;;;;;;;0.68;0.68;;;;;;;1.74;60.84;102780.97;679879;28;137860;-70
2022/01/11 00:35:40;;;;;;;0.70;0.70;;;;;;;1.74;60.90;102788.06;682207;28;114967;-70
2022/01/11 00:36:06;;;;;;;0.63;0.63;;;;;;;1.72;60.85;102784.63;681793;28;138079;-70
2022/01/11 00:36:40;;;;;;;0.65;0.65;;;;;;;1.67;60.64;102784.81;679292;28;137832;-71
2022/01/11 00:37:01;;;;;;;0.80;0.80;;;;;;;1.63;60.65;102785.91;676035;28;156506;-71
2022/01/11 00:37:23;;;;;;;0.90;0.90;;;;;;;1.60;60.79;102786.06;681699;28;22285;-71
2022/01/11 00:37:44;;;;;;;0.90;0.90;;;;;;;1.58;60.80;102783.47;677554;29;47378;-71
2022/01/11 00:38:06;;;;;;;0.82;0.82;;;;;;;1.61;60.87;102783.31;677203;29;22412;-70
2022/01/11 00:38:29;;;;;;;0.60;0.60;;;;;;;1.60;60.85;102783.38;675435;29;45232;-70
2022/01/11 00:38:51;;;;;;;0.70;0.70;;;;;;;1.58;60.95;102782.56;675910;29;69442;-71
2022/01/11 00:39:13;;;;;;;0.70;0.70;;;;;;;1.49;60.85;102781.19;679354;29;46230;-70
2022/01/11 00:39:34;;;;;;;0.77;0.77;;;;;;;1.44;60.97;102781.41;675788;29;47827;-70
2022/01/11 00:39:55;;;;;;;0.90;0.90;;;;;;;1.38;61.28;102787.00;679237;28;22395;-70
2022/01/11 00:40:17;;;;;;;0.90;0.90;;;;;;;1.34;61.33;102784.53;678679;29;21529;-73
2022/01/11 00:40:39;;;;;;;0.90;0.90;;;;;;;1.29;61.54;102784.72;678656;28;69425;-71
2022/01/11 00:41:02;;;;;;;0.70;0.70;;;;;;;1.26;61.66;102774.22;680052;28;22276;-71
2022/01/11 00:41:24;;;;;;;0.70;0.70;;;;;;;1.23;61.89;102782.31;676819;29;67506;-71
2022/01/11 00:41:46;;;;;;;0.70;0.70;;;;;;;1.22;61.93;102777.91;678195;29;69455;-70
2022/01/11 00:42:08;;;;;;;0.60;0.60;;;;;;;1.19;62.21;102775.38;684687;28;23479;-70
2022/01/11 00:42:29;;;;;;;0.80;0.80;;;;;;;1.17;62.34;102782.59;683691;28;46423;-70
2022/01/11 00:42:50;;;;;;;0.90;0.90;;;;;;;1.14;62.27;102780.06;682884;28;22411;-70
2022/01/11 00:43:11;;;;;;;0.82;0.82;;;;;;;1.16;62.65;102778.19;683288;28;47069;-71
2022/01/11 00:43:35;;;;;;;1.00;1.00;;;;;;;1.19;62.66;102786.03;684488;28;23599;-71
2022/01/11 00:43:56;;;;;;;0.90;0.90;;;;;;;1.22;62.79;102780.59;681097;28;67547;-71
2022/01/11 00:44:17;;;;;;;0.90;0.90;;;;;;;1.20;62.60;102782.47;680182;28;23447;-70
2022/01/11 00:44:39;;;;;;;0.80;0.80;;;;;;;1.18;62.63;102784.31;682914;28;22499;-70
2022/01/11 00:45:00;;;;;;;0.70;0.70;;;;;;;1.16;62.67;102778.19;682507;28;44399;-70
2022/01/11 00:45:21;;;;;;;0.85;0.85;;;;;;;1.16;62.52;102783.50;683102;28;22426;-70
2022/01/11 00:45:42;;;;;;;1.10;1.10;;;;;;;1.14;63.02;102782.72;682903;28;22393;-71
2022/01/11 00:46:06;;;;;;;1.00;1.00;;;;;;;1.13;62.55;102776.53;683475;28;22388;-71
2022/01/11 00:46:27;;;;;;;1.00;1.00;;;;;;;1.13;62.67;102778.31;680335;28;91754;-71
2022/01/11 00:46:48;;;;;;;0.90;0.90;;;;;;;1.13;62.86;102776.53;682370;28;21561;-71
2022/01/11 00:47:09;;;;;;;0.90;0.90;;;;;;;1.11;62.78;102783.69;683096;28;22376;-70
2022/01/11 00:47:31;;;;;;;0.80;0.80;;;;;;;1.10;62.77;102783.75;683116;28;21350;-71
2022/01/11 00:47:52;;;;;;;1.08;1.08;;;;;;;1.09;62.89;102782.91;682466;28;46373;-71
2022/01/11 00:48:13;;;;;;;1.10;1.10;;;;;;;1.05;62.95;102790.16;680297;29;22384;-70
2022/01/11 00:48:39;;;;;;;2.03;2.03;;;;;;;1.04;62.87;102779.59;677236;29;46201;-70
2022/01/11 00:49:02;;;;;;;88.40;84.10;;;;;;;1.03;62.88;102789.34;677649;28;115267;-70
2022/01/11 00:49:23;;;;;;;7.80;7.47;;;;;;;1.03;63.10;102785.81;678742;29;69465;-71
2022/01/11 00:49:45;;;;;;;0.82;0.82;;;;;;;1.02;63.20;102790.28;679358;28;43741;-71
2022/01/11 00:50:08;;;;;;;0.90;0.90;;;;;;;1.00;63.25;102791.28;682045;28;22417;-70
2022/01/11 00:50:32;;;;;;;43.63;41.33;;;;;;;0.97;63.27;102792.28;681706;28;69139;-71
2022/01/11 00:50:54;;;;;;;2.83;2.78;;;;;;;0.97;63.22;102788.75;679858;28;93147;-71
2022/01/11 00:51:17;;;;;;;1.10;1.10;;;;;;;0.93;63.50;102798.66;680441;28;45281;-71
2022/01/11 00:51:39;;;;;;;0.98;0.98;;;;;;;0.94;63.36;102786.22;680840;28;69205;-70
2022/01/11 00:52:00;;;;;;;0.90;0.90;;;;;;;0.91;63.62;102784.56;682066;28;45254;-70
2022/01/11 00:52:21;;;;;;;0.90;0.90;;;;;;;0.90;63.44;102794.31;682130;28;46345;-71
2022/01/11 00:52:43;;;;;;;1.00;1.00;;;;;;;0.87;63.54;102790.94;682850;28;23478;-70
2022/01/11 00:53:05;;;;;;;1.20;1.20;;;;;;;0.83;63.71;102795.53;681792;28;45191;-70
2022/01/11 00:53:26;;;;;;;0.90;0.90;;;;;;;0.84;63.63;102791.06;682235;28;44420;-71
2022/01/11 00:53:48;;;;;;;1.00;1.00;;;;;;;0.83;63.66;102791.97;682599;28;23508;-71
2022/01/11 00:54:09;;;;;;;1.10;1.10;;;;;;;0.83;63.92;102795.53;681914;28;45283;-70
2022/01/11 00:54:31;;;;;;;0.93;0.93;;;;;;;0.84;63.96;102793.72;683309;28;21501;-70
2022/01/11 00:54:52;;;;;;;0.80;0.80;;;;;;;0.85;64.06;102793.66;682920;28;22413;-71
2022/01/11 00:55:15;;;;;;;0.60;0.60;;;;;;;0.88;64.05;102803.31;680233;29;22391;-71
2022/01/11 00:55:38;;;;;;;0.60;0.60;;;;;;;0.89;64.03;102799.69;676725;29;67318;-71
2022/01/11 00:56:00;;;;;;;0.80;0.80;;;;;;;0.88;63.84;102801.50;680383;28;90709;-70
2022/01/11 00:56:21;;;;;;;1.00;1.00;;;;;;;0.89;63.95;102802.38;679575;28;22425;-71
2022/01/11 00:56:43;;;;;;;0.80;0.80;;;;;;;0.89;63.92;102800.59;679898;28;23243;-71
2022/01/11 00:57:04;;;;;;;0.80;0.80;;;;;;;0.85;63.84;102801.63;679242;28;45253;-70
2022/01/11 00:57:25;;;;;;;0.70;0.70;;;;;;;0.85;63.80;102806.97;680484;28;46869;-70
2022/01/11 00:57:47;;;;;;;0.80;0.80;;;;;;;0.85;63.86;102804.28;682524;28;23285;-71
2022/01/11 00:58:08;;;;;;;0.80;0.80;;;;;;;0.85;63.93;102808.75;678626;28;22435;-71
2022/01/11 00:58:30;;;;;;;0.70;0.70;;;;;;;0.86;63.93;102805.16;680222;28;23488;-71
2022/01/11 00:58:51;;;;;;;0.88;0.88;;;;;;;0.85;64.00;102808.75;676949;29;44407;-71
2022/01/11 00:59:12;;;;;;;1.10;1.10;;;;;;;0.87;63.92;102812.22;676986;29;22425;-70
2022/01/11 00:59:34;;;;;;;1.02;1.02;;;;;;;0.87;63.99;102801.56;678268;29;20904;-70
2022/01/11 00:59:56;;;;;;;0.85;0.85;;;;;;;0.92;63.99;102804.91;678182;29;47363;-70
2022/01/11 01:00:17;;;;;;;0.80;0.80;;;;;;;0.92;63.87;102802.25;681045;29;44425;-71
2022/01/11 01:00:39;;;;;;;0.80;0.80;;;;;;;0.95;63.89;102807.44;680860;28;45312;-70
2022/01/11 01:01:01;;;;;;;0.75;0.75;;;;;;;0.95;63.80;102802.13;683138;28;21551;-70
2022/01/11 01:01:22;;;;;;;0.80;0.80;;;;;;;0.95;63.83;102812.75;681659;28;46341;-70
2022/01/11 01:01:43;;;;;;;0.90;0.90;;;;;;;0.95;63.75;102806.59;682478;28;22435;-70
2022/01/11 01:02:05;;;;;;;0.77;0.77;;;;;;;0.94;63.72;102813.72;682158;28;43955;-71
2022/01/11 01:02:27;;;;;;;0.82;0.82;;;;;;;0.93;63.86;102814.63;681349;28;46739;-70
2022/01/11 01:02:48;;;;;;;0.93;0.93;;;;;;;0.90;63.84;102817.41;677733;29;21010;-71
2022/01/11 01:03:10;;;;;;;0.80;0.80;;;;;;;0.87;64.05;102813.06;678151;29;22283;-71
2022/01/11 01:03:31;;;;;;;0.70;0.70;;;;;;;0.86;63.83;102814.03;680610;28;22419;-71
2022/01/11 01:03:53;;;;;;;0.90;0.90;;;;;;;0.86;63.91;102815.78;680932;28;21542;-71
2022/01/11 01:04:15;;;;;;;1.10;1.10;;;;;;;0.83;64.00;102810.59;681648;28;69444;-71
2022/01/11 01:04:36;;;;;;;1.00;1.00;;;;;;;0.79;63.96;102809.88;680683;28;21534;-70
2022/01/11 01:04:57;;;;;;;1.00;1.00;;;;;;;0.78;63.98;102812.59;682577;28;45279;-70
2022/01/11 01:05:21;;;;;;;1.00;1.00;;;;;;;0.76;64.14;102809.13;682415;28;22206;-70
2022/01/11 01:05:43;;;;;;;0.90;0.90;;;;;;;0.77;64.26;102817.06;677862;29;92282;-71
2022/01/11 01:06:05;;;;;;;0.80;0.80;;;;;;;0.76;64.34;102819.78;679004;28;46927;-70
2022/01/11 01:06:29;;;;;;;0.80;0.80;;;;;;;0.73;64.26;102817.25;677232;29;46369;-72
2022/01/11 01:06:52;;;;;;;0.98;0.98;;;;;;;0.72;64.35;102819.00;678064;28;137869;-71
2022/01/11 01:07:13;;;;;;;1.00;1.00;;;;;;;0.74;64.39;102816.28;682447;28;23753;-70
2022/01/11 01:07:35;;;;;;;0.90;0.90;;;;;;;0.72;64.61;102811.03;680466;28;23518;-71
2022/01/11 01:07:57;;;;;;;1.00;1.00;;;;;;;0.73;64.69;102815.44;681766;28;21541;-70
2022/01/11 01:08:18;;;;;;;0.90;0.90;;;;;;;0.73;64.51;102814.56;678681;29;69545;-71
2022/01/11 01:08:40;;;;;;;0.80;0.80;;;;;;;0.71;64.50;102823.47;681075;28;1629;-70
2022/01/11 01:09:03;;;;;;;0.70;0.70;;;;;;;0.71;64.60;102814.63;678059;28;92295;-71
2022/01/11 01:09:37;;;;;;;0.90;0.90;;;;;;;0.70;64.78;102819.06;677957;28;92373;-71
2022/01/11 01:10:03;;;;;;;0.90;0.90;;;;;;;0.69;64.85;102820.03;672765;29;137855;-71
2022/01/11 01:10:35;;;;;;;0.90;0.90;;;;;;;0.73;64.83;102812.78;675611;28;137465;-73
2022/01/11 01:10:58;;;;;;;0.80;0.80;;;;;;;0.75;64.59;102823.34;678627;28;136193;-70
2022/01/11 01:11:22;;;;;;;0.80;0.80;;;;;;;0.75;64.75;102824.22;682109;28;116099;-70
2022/01/11 01:11:44;;;;;;;0.80;0.80;;;;;;;0.75;64.70;102820.69;685968;28;21563;-70
2022/01/11 01:12:07;;;;;;;0.70;0.70;;;;;;;0.73;64.50;102827.88;685942;28;45256;-70
2022/01/11 01:12:29;;;;;;;0.73;0.73;;;;;;;0.67;64.59;102821.84;682417;28;90775;-71
2022/01/11 01:12:51;;;;;;;0.80;0.80;;;;;;;0.63;64.46;102822.06;681101;28;22376;-71
2022/01/11 01:13:16;;;;;;;0.90;0.90;;;;;;;0.64;64.64;102821.13;677160;29;69440;-71
2022/01/11 01:13:43;;;;;;;0.93;0.93;;;;;;;0.64;64.80;102826.44;672695;29;137987;-70
2022/01/11 01:14:06;;;;;;;0.90;0.90;;;;;;;0.64;64.91;102826.44;674649;29;92582;-71
2022/01/11 01:14:27;;;;;;;0.80;0.80;;;;;;;0.61;64.89;102822.13;678947;29;22329;-71
2022/01/11 01:14:48;;;;;;;0.65;0.65;;;;;;;0.61;64.80;102826.56;680142;28;44370;-71
2022/01/11 01:15:10;;;;;;;0.70;0.70;;;;;;;0.62;65.14;102822.97;680867;29;21517;-71
2022/01/11 01:15:34;;;;;;;0.80;0.80;;;;;;;0.61;65.30;102822.13;678652;28;67544;-70
2022/01/11 01:15:58;;;;;;;0.90;0.90;;;;;;;0.63;65.28;102822.06;679295;28;137726;-71
2022/01/11 01:16:41;;;;;;;0.90;0.90;;;;;;;0.65;65.29;102826.38;675591;29;135753;-70
2022/01/11 01:17:24;;;;;;;0.80;0.80;;;;;;;0.66;65.29;102829.94;677131;28;158629;-70
2022/01/11 01:17:45;;;;;;;0.90;0.90;;;;;;;0.68;65.36;102828.06;684582;28;22437;-70
2022/01/11 01:18:07;;;;;;;0.80;0.80;;;;;;;0.66;65.11;102828.13;682416;28;42938;-70
2022/01/11 01:18:32;;;;;;;0.70;0.70;;;;;;;0.65;65.00;102828.19;683558;28;22204;-71
2022/01/11 01:18:53;;;;;;;0.90;0.90;;;;;;;0.64;65.01;102829.97;677239;28;113586;-71
2022/01/11 01:19:14;;;;;;;0.90;0.90;;;;;;;0.64;65.11;102835.31;682351;28;23283;-71
2022/01/11 01:19:35;;;;;;;0.90;0.90;;;;;;;0.64;65.22;102829.97;686011;28;22515;-70
2022/01/11 01:19:57;;;;;;;0.90;0.90;;;;;;;0.63;65.18;102828.25;682123;28;47080;-70
2022/01/11 01:20:19;;;;;;;0.80;0.80;;;;;;;0.64;65.12;102831.75;682887;28;22455;-70
2022/01/11 01:20:40;;;;;;;0.70;0.70;;;;;;;0.63;65.28;102822.91;683285;28;44324;-71
2022/01/11 01:21:02;;;;;;;0.70;0.70;;;;;;;0.65;65.25;102833.50;686468;28;21558;-71
2022/01/11 01:21:23;;;;;;;0.70;0.70;;;;;;;0.65;65.17;102836.16;687458;28;45250;-71
2022/01/11 01:21:47;;;;;;;0.80;0.80;;;;;;;0.64;65.30;102827.31;688826;28;21582;-70
2022/01/11 01:22:09;;;;;;;0.90;0.90;;;;;;;0.63;65.20;102824.72;687285;28;136549;-70
2022/01/11 01:22:30;;;;;;;0.80;0.80;;;;;;;0.66;65.16;102835.25;690932;28;22424;-71
2022/01/11 01:22:53;;;;;;;0.70;0.70;;;;;;;0.65;65.25;102829.03;691308;28;23502;-71
2022/01/11 01:23:14;;;;;;;0.70;0.70;;;;;;;0.65;65.20;102831.69;688774;28;46302;-70
2022/01/11 01:23:35;;;;;;;0.70;0.70;;;;;;;0.68;65.32;102830.72;685639;28;46503;-71
2022/01/11 01:23:56;;;;;;;0.60;0.60;;;;;;;0.69;65.17;102832.44;684395;28;23651;-71
2022/01/11 01:24:18;;;;;;;0.60;0.60;;;;;;;0.70;65.26;102828.84;684415;28;23433;-71
2022/01/11 01:24:39;;;;;;;0.60;0.60;;;;;;;0.69;65.33;102832.44;682210;28;44349;-71
2022/01/11 01:25:00;;;;;;;0.80;0.80;;;;;;;0.70;65.20;102837.69;685677;28;22421;-70
2022/01/11 01:25:23;;;;;;;0.80;0.80;;;;;;;0.70;65.08;102831.50;686780;28;23495;-71
2022/01/11 01:25:45;;;;;;;0.80;0.80;;;;;;;0.74;65.10;102829.59;683728;28;70864;-71
2022/01/11 01:26:07;;;;;;;0.70;0.70;;;;;;;0.75;64.98;102836.66;681355;28;46372;-71
2022/01/11 01:26:28;;;;;;;0.70;0.70;;;;;;;0.76;64.97;102833.94;679694;28;46345;-71
2022/01/11 01:26:50;;;;;;;0.60;0.60;;;;;;;0.78;65.02;102833.88;679058;29;22433;-71
2022/01/11 01:27:11;;;;;;;0.60;0.60;;;;;;;0.77;64.88;102838.34;677934;29;23494;-71
2022/01/11 01:27:33;;;;;;;0.60;0.60;;;;;;;0.76;64.71;102843.72;678520;29;22380;-71
2022/01/11 01:27:54;;;;;;;0.80;0.80;;;;;;;0.73;64.71;102834.06;680593;28;45306;-71
2022/01/11 01:28:17;;;;;;;0.80;0.80;;;;;;;0.76;64.71;102839.25;684530;28;46348;-71
2022/01/11 01:28:39;;;;;;;0.77;0.77;;;;;;;0.77;64.72;102841.00;686578;28;67534;-70
2022/01/11 01:29:00;;;;;;;0.70;0.70;;;;;;;0.77;64.51;102837.44;687167;28;44351;-70
2022/01/11 01:29:21;;;;;;;0.70;0.70;;;;;;;0.78;64.63;102839.19;688100;28;20833;-71
2022/01/11 01:29:43;;;;;;;0.70;0.70;;;;;;;0.77;64.53;102837.44;687721;28;22418;-71
2022/01/11 01:30:06;;;;;;;0.70;0.70;;;;;;;0.75;64.53;102834.84;687668;28;23458;-71
2022/01/11 01:30:28;;;;;;;0.63;0.63;;;;;;;0.71;64.69;102828.78;685383;28;92229;-71
2022/01/11 01:30:51;;;;;;;0.70;0.70;;;;;;;0.72;64.49;102840.28;685189;28;45276;-72
2022/01/11 01:31:12;;;;;;;0.90;0.90;;;;;;;0.73;64.53;102844.69;683444;28;69466;-70
2022/01/11 01:31:34;;;;;;;0.85;0.85;;;;;;;0.73;64.57;102841.19;685588;28;23467;-71
2022/01/11 01:32:00;;;;;;;0.90;0.90;;;;;;;0.72;64.67;102840.28;681639;28;133404;-71
2022/01/11 01:32:23;;;;;;;0.80;0.80;;;;;;;0.72;64.86;102845.59;683054;28;67644;-71
2022/01/11 01:32:45;;;;;;;0.70;0.70;;;;;;;0.70;64.71;102843.00;683222;28;66039;-70
2022/01/11 01:33:06;;;;;;;0.70;0.70;;;;;;;0.71;65.05;102846.56;686098;28;22354;-71
2022/01/11 01:33:28;;;;;;;0.80;0.80;;;;;;;0.70;64.88;102844.81;685298;28;45230;-71
2022/01/11 01:33:49;;;;;;;0.88;0.88;;;;;;;0.71;64.83;102849.22;684457;28;45267;-70
2022/01/11 01:34:10;;;;;;;0.90;0.90;;;;;;;0.67;64.85;102845.78;683624;28;23486;-70
2022/01/11 01:34:31;;;;;;;0.82;0.82;;;;;;;0.68;64.95;102849.34;684249;28;22495;-71
2022/01/11 01:34:56;;;;;;;0.80;0.80;;;;;;;0.68;65.00;102855.50;680413;29;25833;-70
2022/01/11 01:35:19;;;;;;;0.80;0.80;;;;;;;0.68;64.92;102841.34;677192;29;115009;-71
2022/01/11 01:35:43;;;;;;;0.70;0.70;;;;;;;0.70;64.99;102851.00;677559;29;69713;-70
2022/01/11 01:36:11;;;;;;;0.60;0.60;;;;;;;0.70;64.90;102851.00;681094;28;92342;-71
2022/01/11 01:36:33;;;;;;;0.75;0.75;;;;;;;0.71;64.78;102844.75;680726;28;138034;-69
2022/01/11 01:36:55;;;;;;;0.90;0.90;;;;;;;0.74;64.75;102846.44;684325;28;45282;-68
2022/01/11 01:37:17;;;;;;;0.90;0.90;;;;;;;0.75;64.78;102850.81;684759;28;46454;-68
2022/01/11 01:37:38;;;;;;;0.90;0.90;;;;;;;0.76;64.83;102846.38;686362;28;44391;-69
2022/01/11 01:37:59;;;;;;;0.80;0.80;;;;;;;0.76;64.81;102847.22;686911;28;22193;-68
2022/01/11 01:38:24;;;;;;;0.80;0.80;;;;;;;0.77;64.63;102850.75;685360;28;21558;-69
2022/01/11 01:38:45;;;;;;;0.80;0.80;;;;;;;0.78;64.65;102849.81;682523;28;115305;-68
2022/01/11 01:39:06;;;;;;;0.68;0.68;;;;;;;0.80;64.55;102845.31;685585;28;23459;-68
2022/01/11 01:39:29;;;;;;;0.73;0.73;;;;;;;0.81;64.60;102850.56;685486;28;46291;-69
2022/01/11 01:39:50;;;;;;;0.93;0.93;;;;;;;0.82;64.44;102846.13;684641;28;46352;-69
2022/01/11 01:40:13;;;;;;;1.00;1.00;;;;;;;0.82;64.36;102851.44;687705;28;21516;-69
2022/01/11 01:40:39;;;;;;;0.80;0.80;;;;;;;0.80;64.25;102853.28;687350;28;67478;-69
2022/01/11 01:41:09;;;;;;;0.77;0.77;;;;;;;0.79;64.19;102846.25;684147;28;137832;-69
2022/01/11 01:41:30;;;;;;;0.70;0.70;;;;;;;0.78;64.24;102842.69;684050;28;136148;-69
2022/01/11 01:41:52;;;;;;;0.70;0.70;;;;;;;0.80;64.21;102843.53;687726;28;23486;-69
2022/01/11 01:42:14;;;;;;;0.60;0.60;;;;;;;0.80;64.37;102845.31;685279;28;45284;-69
2022/01/11 01:42:36;;;;;;;0.70;0.70;;;;;;;0.81;64.32;102844.38;685436;28;46323;-69
2022/01/11 01:42:57;;;;;;;0.90;0.90;;;;;;;0.82;64.18;102848.78;686012;28;22398;-68
2022/01/11 01:43:19;;;;;;;0.80;0.80;;;;;;;0.81;64.19;102853.22;686060;28;23473;-69
2022/01/11 01:43:40;;;;;;;0.70;0.70;;;;;;;0.82;64.25;102848.78;684052;28;70170;-69
2022/01/11 01:44:03;;;;;;;0.70;0.70;;;;;;;0.80;64.16;102847.97;686220;28;22433;-69
2022/01/11 01:44:26;;;;;;;0.70;0.70;;;;;;;0.78;64.10;102845.38;684020;28;69366;-69
2022/01/11 01:44:48;;;;;;;0.70;0.70;;;;;;;0.83;64.06;102855.81;683462;28;68403;-68
2022/01/11 01:45:10;;;;;;;0.60;0.60;;;;;;;0.84;64.14;102852.25;684828;28;44162;-70
2022/01/11 01:45:31;;;;;;;0.80;0.80;;;;;;;0.83;64.09;102853.16;685487;28;47292;-69
2022/01/11 01:45:58;;;;;;;1.00;1.00;;;;;;;0.83;64.07;102856.72;682899;28;21517;-69
2022/01/11 01:46:19;;;;;;;0.80;0.80;;;;;;;0.83;64.08;102859.38;677937;28;159606;-69
2022/01/11 01:46:41;;;;;;;0.80;0.80;;;;;;;0.81;64.02;102858.53;681684;28;43754;-69
2022/01/11 01:47:02;;;;;;;0.70;0.70;;;;;;;0.79;63.87;102849.75;682149;28;45305;-69
2022/01/11 01:47:24;;;;;;;0.70;0.70;;;;;;;0.77;63.97;102854.28;684218;28;22479;-69
2022/01/11 01:47:45;;;;;;;0.70;0.70;;;;;;;0.79;64.01;102856.91;681341;28;45103;-68
2022/01/11 01:48:07;;;;;;;0.70;0.70;;;;;;;0.78;64.02;102858.66;681542;28;21518;-70
2022/01/11 01:48:28;;;;;;;0.73;0.73;;;;;;;0.78;64.13;102856.00;678196;29;44275;-69
2022/01/11 01:48:51;;;;;;;1.00;1.00;;;;;;;0.79;64.08;102856.91;680519;28;22399;-69
2022/01/11 01:49:17;;;;;;;1.00;1.00;;;;;;;0.78;64.13;102858.66;679243;29;69379;-69
2022/01/11 01:49:39;;;;;;;0.80;0.80;;;;;;;0.75;63.99;102855.28;676163;28;136454;-69
2022/01/11 01:50:00;;;;;;;0.75;0.75;;;;;;;0.74;63.88;102849.09;681943;28;45195;-69
2022/01/11 01:50:22;;;;;;;0.80;0.80;;;;;;;0.77;63.96;102858.72;683898;28;22393;-69
2022/01/11 01:50:44;;;;;;;0.80;0.80;;;;;;;0.74;64.01;102865.06;683930;28;45077;-69